createdAt,value
2022-09-07T00:01:00.716Z,93.77
2022-09-07T00:03:27.492Z,93.18
2022-09-07T00:05:54.080Z,92.46
2022-09-07T00:08:24.379Z,93.31
2022-09-07T00:10:52.918Z,92.41
2022-09-07T00:13:19.349Z,93.58
2022-09-07T00:15:45.808Z,94.35
2022-09-07T00:18:12.237Z,93.28
2022-09-07T00:20:38.628Z,93.69
2022-09-07T00:23:05.116Z,93.91
2022-09-07T00:25:32.106Z,94.34
2022-09-07T00:27:59.292Z,94.62
2022-09-07T00:30:27.032Z,94.63
2022-09-07T00:32:53.440Z,96.56
2022-09-07T00:35:19.857Z,96.80
2022-09-07T00:37:46.258Z,95.64
2022-09-07T00:40:12.730Z,96.26
2022-09-07T00:42:39.181Z,97.22
2022-09-07T00:45:06.201Z,99.04
2022-09-07T00:47:39.896Z,97.90
2022-09-07T00:50:21.944Z,95.60
2022-09-07T00:52:53.512Z,94.48
2022-09-07T00:55:20.794Z,94.05
2022-09-07T00:57:52.158Z,95.37
2022-09-07T01:00:19.228Z,95.45
2022-09-07T01:02:49.134Z,96.21
2022-09-07T01:05:24.965Z,95.51
2022-09-07T01:07:51.390Z,94.43
2022-09-07T01:10:18.070Z,96.05
2022-09-07T01:12:44.493Z,94.33
2022-09-07T01:15:11.033Z,96.10
2022-09-07T01:17:43.341Z,95.44
2022-09-07T01:20:38.501Z,95.44
2022-09-07T01:23:37.809Z,95.43
2022-09-07T01:26:38.348Z,95.52
2022-09-07T01:29:10.799Z,95.08
2022-09-07T01:32:05.503Z,95.52
2022-09-07T01:34:32.294Z,95.68
2022-09-07T01:37:39.534Z,96.53
2022-09-07T01:40:13.319Z,97.08
2022-09-07T01:42:54.659Z,97.15
2022-09-07T01:45:27.201Z,96.09
2022-09-07T01:47:56.973Z,95.94
2022-09-07T01:50:41.137Z,96.42
2022-09-07T01:53:15.490Z,96.12
2022-09-07T01:55:55.704Z,96.38
2022-09-07T01:58:29.315Z,96.13
2022-09-07T02:01:01.835Z,96.00
2022-09-07T02:03:30.899Z,95.29
2022-09-07T02:06:20.493Z,94.96
2022-09-07T02:09:00.928Z,95.85
2022-09-07T02:11:37.663Z,96.69
2022-09-07T02:14:17.801Z,96.70
2022-09-07T02:17:17.089Z,96.25
2022-09-07T02:19:54.189Z,96.16
2022-09-07T02:22:27.688Z,96.27
2022-09-07T02:24:58.284Z,96.18
2022-09-07T02:27:34.360Z,96.67
2022-09-07T02:30:00.813Z,96.91
2022-09-07T02:32:27.354Z,97.29
2022-09-07T02:34:53.791Z,97.77
2022-09-07T02:37:20.836Z,98.10
2022-09-07T02:39:47.903Z,97.36
2022-09-07T02:42:14.386Z,97.97
2022-09-07T02:44:42.749Z,97.51
2022-09-07T02:47:29.872Z,98.94
2022-09-07T02:50:30.624Z,97.85
2022-09-07T02:53:22.943Z,97.91
2022-09-07T02:56:07.359Z,97.22
2022-09-07T02:58:49.699Z,97.66
2022-09-07T03:01:51.121Z,97.89
2022-09-07T03:04:17.531Z,97.67
2022-09-07T03:06:53.542Z,97.53
2022-09-07T03:09:24.743Z,97.99
2022-09-07T03:11:52.061Z,97.03
2022-09-07T03:14:22.049Z,97.89
2022-09-07T03:16:51.297Z,97.74
2022-09-07T03:19:18.039Z,99.14
2022-09-07T03:21:45.138Z,98.74
2022-09-07T03:24:11.568Z,97.90
2022-09-07T03:26:41.799Z,97.94
2022-09-07T03:29:08.382Z,96.96
2022-09-07T03:31:35.660Z,98.49
2022-09-07T03:34:02.638Z,97.77
2022-09-07T03:36:30.021Z,97.19
2022-09-07T03:38:58.670Z,96.57
2022-09-07T03:41:26.213Z,96.61
2022-09-07T03:43:52.752Z,96.35
2022-09-07T03:46:19.640Z,95.82
2022-09-07T03:48:48.075Z,97.42
2022-09-07T03:51:17.103Z,96.56
2022-09-07T03:53:46.106Z,98.32
2022-09-07T03:56:19.719Z,98.43
2022-09-07T03:58:47.702Z,97.52
2022-09-07T04:01:20.039Z,96.44
2022-09-07T04:03:48.054Z,98.10
2022-09-07T04:06:15.491Z,97.03
2022-09-07T04:08:43.221Z,97.21
2022-09-07T04:11:13.227Z,96.82
2022-09-07T04:13:40.086Z,96.74
2022-09-07T04:16:23.838Z,97.57
2022-09-07T04:18:50.903Z,96.76
2022-09-07T04:21:18.514Z,97.88
2022-09-07T04:23:45.410Z,98.64
2022-09-07T04:26:23.297Z,99.10
2022-09-07T04:28:50.776Z,99.28
2022-09-07T04:31:19.221Z,98.83
2022-09-07T04:33:47.193Z,98.45
2022-09-07T04:36:14.856Z,98.18
2022-09-07T04:38:41.437Z,97.24
2022-09-07T04:41:11.757Z,98.62
2022-09-07T04:43:39.823Z,98.66
2022-09-07T04:46:08.541Z,99.49
2022-09-07T04:48:34.971Z,98.94
2022-09-07T04:51:09.299Z,98.82
2022-09-07T04:53:37.330Z,97.99
2022-09-07T04:56:04.875Z,98.55
2022-09-07T04:58:31.860Z,98.14
2022-09-07T05:01:03.409Z,98.90
2022-09-07T05:03:35.821Z,97.31
2022-09-07T05:06:06.588Z,97.91
2022-09-07T05:08:41.656Z,98.15
2022-09-07T05:11:09.796Z,98.09
2022-09-07T05:13:37.171Z,97.86
2022-09-07T05:16:12.315Z,97.98
2022-09-07T05:18:38.881Z,98.01
2022-09-07T05:21:26.369Z,97.79
2022-09-07T05:23:55.501Z,98.17
2022-09-07T05:26:23.975Z,98.23
2022-09-07T05:28:50.743Z,98.00
2022-09-07T05:31:19.996Z,98.53
2022-09-07T05:36:35.970Z,98.93
2022-09-07T05:39:03.411Z,99.49
2022-09-07T05:41:29.946Z,98.51
2022-09-07T05:46:42.801Z,98.81
2022-09-07T05:49:10.289Z,99.63
2022-09-07T05:51:37.347Z,98.91
2022-09-07T05:54:04.374Z,98.71
2022-09-07T05:56:34.147Z,99.08
2022-09-07T05:59:00.551Z,99.97
2022-09-07T06:01:27.011Z,98.15
2022-09-07T06:03:53.440Z,99.13
2022-09-07T06:06:19.874Z,98.65
2022-09-07T06:08:49.294Z,100.00
2022-09-07T06:11:18.822Z,99.97
2022-09-07T06:13:45.543Z,99.45
2022-09-07T06:16:13.848Z,100.00
2022-09-07T06:18:42.636Z,99.73
2022-09-07T06:21:20.306Z,97.80
2022-09-07T06:23:47.922Z,99.64
2022-09-07T06:26:16.434Z,98.59
2022-09-07T06:28:48.874Z,98.04
2022-09-07T06:31:20.606Z,99.32
2022-09-07T06:33:48.069Z,99.00
2022-09-07T06:36:16.980Z,98.36
2022-09-07T06:38:44.268Z,98.69
2022-09-07T06:44:12.310Z,99.70
2022-09-07T06:49:25.837Z,98.05
2022-09-07T06:51:52.468Z,99.45
2022-09-07T06:57:09.035Z,98.72
2022-09-07T06:59:36.146Z,97.99
2022-09-07T07:02:02.770Z,100.00
2022-09-07T07:04:29.229Z,100.00
2022-09-07T07:06:55.648Z,100.00
2022-09-07T07:09:22.072Z,99.39
2022-09-07T07:11:48.520Z,98.16
2022-09-07T07:14:15.484Z,99.76
2022-09-07T07:16:42.352Z,99.26
2022-09-07T07:19:09.560Z,98.55
2022-09-07T07:21:55.179Z,97.71
2022-09-07T07:24:23.010Z,98.31
2022-09-07T07:26:49.870Z,96.65
2022-09-07T07:29:18.724Z,95.43
2022-09-07T07:31:46.899Z,95.41
2022-09-07T07:34:13.406Z,95.91
2022-09-07T07:36:40.433Z,94.40
2022-09-07T07:39:07.003Z,94.19
2022-09-07T07:44:20.707Z,94.53
2022-09-07T07:46:49.106Z,93.42
2022-09-07T07:49:16.050Z,90.83
2022-09-07T07:54:29.255Z,90.29
2022-09-07T07:56:55.628Z,91.85
2022-09-07T07:59:21.975Z,92.26
2022-09-07T08:01:48.591Z,91.49
2022-09-07T08:04:15.199Z,92.39
2022-09-07T08:06:42.580Z,91.85
2022-09-07T08:09:09.014Z,90.95
2022-09-07T08:11:35.468Z,92.25
2022-09-07T08:14:05.914Z,90.90
2022-09-07T08:16:34.054Z,87.50
2022-09-07T08:19:01.628Z,85.47
2022-09-07T08:21:28.247Z,85.24
2022-09-07T08:23:55.486Z,83.44
2022-09-07T08:26:21.911Z,82.46
2022-09-07T08:28:48.699Z,84.48
2022-09-07T08:31:16.410Z,84.12
2022-09-07T08:33:43.205Z,82.77
2022-09-07T08:36:14.710Z,84.52
2022-09-07T08:38:41.777Z,83.60
2022-09-07T08:41:46.825Z,84.34
2022-09-07T08:44:18.184Z,85.68
2022-09-07T08:47:22.024Z,85.89
2022-09-07T08:49:52.652Z,84.18
2022-09-07T08:52:28.451Z,80.18
2022-09-07T08:55:18.398Z,76.40
2022-09-07T08:58:04.566Z,79.40
2022-09-07T09:00:31.465Z,80.96
2022-09-07T09:06:01.441Z,80.42
2022-09-07T09:09:12.472Z,79.41
2022-09-07T09:12:02.922Z,77.63
2022-09-07T09:14:56.283Z,74.66
2022-09-07T09:17:31.491Z,71.49
2022-09-07T09:20:22.926Z,70.66
2022-09-07T09:23:00.790Z,69.15
2022-09-07T09:25:33.591Z,68.45
2022-09-07T09:28:00.367Z,67.02
2022-09-07T09:30:28.176Z,67.29
2022-09-07T09:33:14.825Z,66.64
2022-09-07T09:35:42.472Z,64.31
2022-09-07T09:38:34.439Z,63.61
2022-09-07T09:41:14.837Z,62.45
2022-09-07T09:43:59.635Z,62.35
2022-09-07T09:46:29.359Z,60.29
2022-09-07T09:49:05.479Z,60.41
2022-09-07T09:54:34.484Z,57.25
2022-09-07T09:57:00.961Z,56.89
2022-09-07T10:05:39.268Z,55.99
2022-09-07T10:08:16.781Z,54.91
2022-09-07T10:10:54.643Z,54.84
2022-09-07T10:13:23.466Z,53.96
2022-09-07T10:15:51.540Z,53.42
2022-09-07T10:18:25.105Z,54.17
2022-09-07T10:20:51.613Z,51.80
2022-09-07T10:23:23.820Z,51.41
2022-09-07T10:25:51.080Z,50.94
2022-09-07T10:28:24.701Z,52.08
2022-09-07T10:31:20.447Z,51.45
2022-09-07T10:37:03.999Z,50.01
2022-09-07T10:39:41.358Z,49.22
2022-09-07T10:42:29.492Z,50.14
2022-09-07T10:44:58.809Z,51.46
2022-09-07T10:47:27.992Z,52.86
2022-09-07T10:53:39.424Z,50.85
2022-09-07T10:56:10.575Z,50.40
2022-09-07T10:59:08.380Z,49.03
2022-09-07T11:01:50.366Z,46.90
2022-09-07T11:04:47.570Z,47.67
2022-09-07T11:07:30.486Z,49.66
2022-09-07T11:10:30.737Z,48.40
2022-09-07T11:13:01.037Z,48.54
2022-09-07T11:15:32.662Z,50.35
2022-09-07T11:18:18.580Z,47.35
2022-09-07T11:20:55.341Z,44.52
2022-09-07T11:23:28.543Z,46.97
2022-09-07T11:26:18.895Z,50.38
2022-09-07T11:32:03.177Z,51.16
2022-09-07T11:34:35.634Z,51.37
2022-09-07T11:37:16.738Z,48.97
2022-09-07T11:39:45.123Z,49.68
2022-09-07T11:42:43.506Z,50.00
2022-09-07T11:45:36.620Z,50.05
2022-09-07T11:48:19.574Z,48.98
2022-09-07T11:50:53.252Z,48.64
2022-09-07T11:53:24.180Z,53.09
2022-09-07T11:55:57.148Z,50.03
2022-09-07T11:59:00.055Z,51.53
2022-09-07T12:01:38.115Z,52.17
2022-09-07T12:04:29.911Z,54.06
2022-09-07T12:07:21.387Z,53.08
2022-09-07T12:09:55.499Z,53.43
2022-09-07T12:12:42.077Z,51.47
2022-09-07T12:15:32.775Z,53.24
2022-09-07T12:18:17.939Z,53.93
2022-09-07T12:20:46.321Z,54.80
2022-09-07T12:23:15.451Z,54.95
2022-09-07T12:25:43.998Z,54.60
2022-09-07T12:28:25.607Z,50.79
2022-09-07T12:30:58.485Z,50.98
2022-09-07T12:33:31.477Z,53.01
2022-09-07T12:36:00.759Z,53.79
2022-09-07T12:38:30.365Z,55.41
2022-09-07T12:41:01.788Z,53.10
2022-09-07T12:43:55.045Z,50.88
2022-09-07T12:46:34.874Z,52.55
2022-09-07T12:49:25.919Z,52.73
2022-09-07T12:52:22.530Z,48.36
2022-09-07T12:55:26.209Z,47.61
2022-09-07T12:58:13.721Z,45.88
2022-09-07T13:00:43.166Z,46.41
2022-09-07T13:03:58.866Z,46.38
2022-09-07T13:07:08.649Z,45.44
2022-09-07T13:09:41.660Z,45.47
2022-09-07T13:15:40.989Z,43.42
2022-09-07T13:18:31.442Z,43.55
2022-09-07T13:21:06.672Z,44.21
2022-09-07T13:23:34.851Z,44.15
2022-09-07T13:26:03.394Z,45.80
2022-09-07T13:28:41.531Z,46.06
2022-09-07T13:31:07.944Z,46.12
2022-09-07T13:33:34.472Z,45.31
2022-09-07T13:36:03.390Z,43.92
2022-09-07T13:38:31.703Z,45.46
2022-09-07T13:41:07.558Z,45.53
2022-09-07T13:43:34.737Z,45.55
2022-09-07T13:46:04.865Z,45.71
2022-09-07T13:48:37.238Z,44.89
2022-09-07T13:51:08.362Z,45.19
2022-09-07T13:53:47.812Z,45.59
2022-09-07T13:56:50.415Z,46.54
2022-09-07T13:59:23.773Z,47.70
2022-09-07T14:01:50.953Z,46.24
2022-09-07T14:04:34.142Z,46.13
2022-09-07T14:07:14.503Z,45.74
2022-09-07T14:09:41.360Z,45.62
2022-09-07T14:12:16.118Z,46.29
2022-09-07T14:14:42.630Z,46.31
2022-09-07T14:17:18.345Z,46.41
2022-09-07T14:19:49.149Z,46.55
2022-09-07T14:22:18.805Z,46.79
2022-09-07T14:24:55.453Z,46.52
2022-09-07T14:27:34.814Z,47.40
2022-09-07T14:30:20.113Z,46.48
2022-09-07T14:32:47.848Z,46.67
2022-09-07T14:35:17.708Z,47.06
2022-09-07T14:37:46.173Z,46.42
2022-09-07T14:40:17.296Z,46.09
2022-09-07T14:42:43.791Z,46.28
2022-09-07T14:45:22.228Z,47.61
2022-09-07T14:47:52.295Z,46.52
2022-09-07T14:50:21.851Z,46.66
2022-09-07T14:55:40.511Z,46.91
2022-09-07T14:58:10.379Z,46.29
2022-09-07T15:00:37.055Z,47.19
2022-09-07T15:03:31.686Z,47.08
2022-09-07T15:06:02.398Z,48.56
2022-09-07T15:08:41.111Z,48.46
2022-09-07T15:14:02.432Z,48.25
2022-09-07T15:16:34.511Z,47.66
2022-09-07T15:19:34.037Z,47.60
2022-09-07T15:22:13.359Z,48.05
2022-09-07T15:24:39.906Z,47.98
2022-09-07T15:27:19.376Z,46.57
2022-09-07T15:29:46.354Z,46.76
2022-09-07T15:32:12.837Z,46.61
2022-09-07T15:34:39.191Z,47.58
2022-09-07T15:38:01.125Z,48.03
2022-09-07T15:39:53.044Z,46.96
2022-09-07T15:45:06.958Z,48.01
2022-09-07T15:47:52.228Z,48.66
2022-09-07T15:50:19.578Z,47.15
2022-09-07T15:52:46.389Z,47.44
2022-09-07T15:55:14.443Z,46.72
2022-09-07T15:57:50.183Z,47.33
2022-09-07T16:00:19.584Z,46.99
2022-09-07T16:03:05.002Z,48.19
2022-09-07T16:05:31.970Z,48.10
2022-09-07T16:10:53.524Z,48.13
2022-09-07T16:13:20.577Z,49.03
2022-09-07T16:15:47.852Z,48.06
2022-09-07T16:18:17.235Z,49.10
2022-09-07T16:20:44.771Z,49.24
2022-09-07T16:23:14.561Z,49.72
2022-09-07T16:25:43.294Z,48.56
2022-09-07T16:28:10.131Z,48.97
2022-09-07T16:30:40.388Z,49.31
2022-09-07T16:33:06.977Z,48.96
2022-09-07T16:35:33.422Z,49.64
2022-09-07T16:40:46.454Z,49.41
2022-09-07T16:43:12.878Z,50.05
2022-09-07T16:48:25.618Z,50.62
2022-09-07T16:50:58.920Z,50.62
2022-09-07T16:53:29.553Z,50.37
2022-09-07T16:56:06.481Z,51.38
2022-09-07T16:58:36.519Z,50.47
2022-09-07T17:01:08.623Z,50.99
2022-09-07T17:03:36.808Z,51.89
2022-09-07T17:06:05.200Z,56.63
2022-09-07T17:08:33.159Z,56.99
2022-09-07T17:11:05.851Z,56.88
2022-09-07T17:13:33.819Z,58.03
2022-09-07T17:16:04.911Z,57.88
2022-09-07T17:21:19.757Z,59.38
2022-09-07T17:23:54.417Z,56.92
2022-09-07T17:26:22.563Z,60.29
2022-09-07T17:28:50.566Z,59.98
2022-09-07T17:34:11.558Z,65.46
2022-09-07T17:36:38.078Z,65.59
2022-09-07T17:39:20.224Z,66.96
2022-09-07T17:41:48.342Z,66.41
2022-09-07T17:44:15.197Z,67.98
2022-09-07T17:46:41.540Z,67.03
2022-09-07T17:49:12.217Z,67.65
2022-09-07T17:51:38.868Z,67.16
2022-09-07T17:54:11.419Z,66.29
2022-09-07T17:56:39.922Z,67.04
2022-09-07T18:01:56.504Z,66.06
2022-09-07T18:04:23.372Z,66.28
2022-09-07T18:06:50.248Z,65.65
2022-09-07T18:09:17.315Z,66.11
2022-09-07T18:11:45.550Z,65.84
2022-09-07T18:14:14.688Z,64.76
2022-09-07T18:16:42.752Z,65.22
2022-09-07T18:19:11.147Z,64.70
2022-09-07T18:21:38.004Z,64.41
2022-09-07T18:24:07.790Z,64.29
2022-09-07T18:26:38.296Z,63.19
2022-09-07T18:29:13.012Z,64.52
2022-09-07T18:31:52.179Z,65.83
2022-09-07T18:34:18.649Z,64.99
2022-09-07T18:36:45.016Z,64.90
2022-09-07T18:39:13.136Z,65.40
2022-09-07T18:41:40.832Z,64.60
2022-09-07T18:45:27.292Z,64.75
2022-09-07T18:46:54.450Z,68.44
2022-09-07T18:49:20.879Z,67.83
2022-09-07T18:54:33.688Z,67.44
2022-09-07T18:57:00.108Z,68.13
2022-09-07T18:59:26.488Z,67.72
2022-09-07T19:01:54.131Z,66.87
2022-09-07T19:04:21.175Z,66.56
2022-09-07T19:06:47.976Z,68.79
2022-09-07T19:09:14.417Z,67.98
2022-09-07T19:11:42.169Z,68.96
2022-09-07T19:14:08.920Z,68.13
2022-09-07T19:16:36.438Z,67.42
2022-09-07T19:19:05.569Z,67.67
2022-09-07T19:21:37.270Z,68.91
2022-09-07T19:24:10.719Z,67.80
2022-09-07T19:26:39.664Z,67.91
2022-09-07T19:29:15.314Z,68.00
2022-09-07T19:31:44.750Z,69.80
2022-09-07T19:34:11.496Z,69.78
2022-09-07T19:36:38.567Z,69.79
2022-09-07T19:39:05.779Z,69.67
2022-09-07T19:41:34.094Z,69.29
2022-09-07T19:44:00.491Z,68.84
2022-09-07T19:46:26.968Z,70.13
2022-09-07T19:48:53.478Z,70.35
2022-09-07T19:51:19.943Z,71.57
2022-09-07T19:53:47.078Z,71.72
2022-09-07T19:56:16.327Z,71.78
2022-09-07T19:58:44.030Z,70.76
2022-09-07T20:01:11.928Z,71.22
2022-09-07T20:03:39.061Z,71.34
2022-09-07T20:06:18.796Z,71.03
2022-09-07T20:08:45.560Z,70.80
2022-09-07T20:11:14.093Z,71.82
2022-09-07T20:13:40.893Z,70.52
2022-09-07T20:16:09.442Z,70.46
2022-09-07T20:18:36.140Z,67.77
2022-09-07T20:21:07.120Z,70.45
2022-09-07T20:23:35.036Z,70.37
2022-09-07T20:26:04.503Z,71.47
2022-09-07T20:28:31.779Z,70.87
2022-09-07T20:30:58.147Z,70.54
2022-09-07T20:33:24.690Z,71.97
2022-09-07T20:35:51.470Z,71.89
2022-09-07T20:38:20.617Z,72.48
2022-09-07T20:40:52.143Z,72.45
2022-09-07T20:43:18.966Z,71.79
2022-09-07T20:45:45.449Z,71.54
2022-09-07T20:48:11.937Z,70.95
2022-09-07T20:50:38.829Z,70.78
2022-09-07T20:53:05.647Z,71.21
2022-09-07T20:55:32.432Z,71.70
2022-09-07T20:57:58.805Z,71.90
2022-09-07T21:00:25.772Z,72.37
2022-09-07T21:02:52.744Z,73.07
2022-09-07T21:05:19.233Z,73.01
2022-09-07T21:07:45.599Z,74.00
2022-09-07T21:10:11.968Z,74.29
2022-09-07T21:12:38.356Z,73.43
2022-09-07T21:15:05.218Z,73.88
2022-09-07T21:17:31.670Z,74.00
2022-09-07T21:19:58.047Z,73.68
2022-09-07T21:22:24.458Z,73.57
2022-09-07T21:24:50.798Z,74.04
2022-09-07T21:27:17.174Z,74.33
2022-09-07T21:29:43.573Z,74.10
2022-09-07T21:32:09.956Z,74.14
2022-09-07T21:34:36.376Z,73.40
2022-09-07T21:37:02.752Z,73.22
2022-09-07T21:39:29.309Z,73.02
2022-09-07T21:41:55.775Z,73.38
2022-09-07T21:44:22.264Z,72.76
2022-09-07T21:46:48.717Z,72.27
2022-09-07T21:49:15.142Z,72.63
2022-09-07T21:51:41.490Z,74.31
2022-09-07T21:54:08.395Z,73.20
2022-09-07T21:56:34.889Z,71.80
2022-09-07T21:59:02.435Z,71.06
2022-09-07T22:01:30.587Z,71.32
2022-09-07T22:04:04.887Z,73.13
2022-09-07T22:06:32.461Z,72.85
2022-09-07T22:08:59.655Z,71.35
2022-09-07T22:11:28.119Z,70.82
2022-09-07T22:14:00.535Z,70.69
2022-09-07T22:16:27.355Z,70.88
2022-09-07T22:18:53.832Z,72.75
2022-09-07T22:21:24.114Z,70.07
2022-09-07T22:23:54.247Z,69.49
2022-09-07T22:26:24.050Z,68.72
2022-09-07T22:28:51.007Z,68.57
2022-09-07T22:31:26.093Z,67.73
2022-09-07T22:33:53.944Z,68.22
2022-09-07T22:36:26.540Z,68.62
2022-09-07T22:38:54.360Z,68.28
2022-09-07T22:41:23.544Z,67.65
2022-09-07T22:43:50.966Z,68.39
2022-09-07T22:46:20.339Z,68.74
2022-09-07T22:48:46.840Z,69.05
2022-09-07T22:51:13.626Z,70.86
2022-09-07T22:53:42.710Z,71.06
2022-09-07T22:56:12.405Z,73.01
2022-09-07T22:58:39.437Z,73.67
2022-09-07T23:01:06.630Z,73.76
2022-09-07T23:03:34.664Z,73.65
2022-09-07T23:06:01.552Z,74.33
2022-09-07T23:08:28.174Z,74.31
2022-09-07T23:10:54.608Z,73.08
2022-09-07T23:13:21.387Z,72.62
2022-09-07T23:15:48.178Z,71.90
2022-09-07T23:18:20.181Z,71.39
2022-09-07T23:20:46.730Z,70.93
2022-09-07T23:23:13.667Z,71.33
2022-09-07T23:25:42.238Z,73.06
2022-09-07T23:28:12.364Z,75.09
2022-09-07T23:30:42.005Z,75.53
2022-09-07T23:33:08.358Z,76.14
2022-09-07T23:35:34.716Z,76.72
2022-09-07T23:38:01.951Z,75.36
2022-09-07T23:40:30.366Z,75.35
2022-09-07T23:42:56.796Z,74.81
2022-09-07T23:45:23.335Z,74.54
2022-09-07T23:47:50.014Z,75.12
2022-09-07T23:50:16.493Z,75.89
2022-09-07T23:52:42.946Z,75.02
2022-09-07T23:55:10.941Z,76.75
2022-09-07T23:57:38.126Z,76.35
